EDT,Max TemperatureF,Mean TemperatureF,Min TemperatureF,Max Dew PointF,MeanDew PointF,Min DewpointF,Max Humidity, Mean Humidity, Min Humidity, Max Sea Level PressureIn, Mean Sea Level PressureIn, Min Sea Level PressureIn, Max VisibilityMiles, Mean VisibilityMiles, Min VisibilityMiles, Max Wind SpeedMPH, Mean Wind SpeedMPH, Max Gust SpeedMPH,PrecipitationIn, CloudCover, Events, WindDirDegrees
2012-10-1,69,58,48,61,53,48,100,88,52,30.00,29.95,29.92,10,9,5,7,1,,0.00,3,Rain,356
2012-10-2,68,64,60,68,64,61,100,100,100,29.97,29.93,29.90,10,5,0,6,1,,1.93,8,Fog-Rain,356
2012-10-3,84,75,66,73,69,66,100,92,55,30.13,30.06,29.96,10,6,0,7,1,,0.02,7,Fog-Rain,211
2012-10-4,80,70,57,72,66,57,100,89,54,30.17,30.14,30.12,10,7,1,9,1,,0.00,,Rain,335
2012-10-5,82,66,51,63,57,52,100,80,37,30.17,30.10,29.97,10,8,1,9,1,,0.00,0,,209
2012-10-6,78,64,46,63,54,43,100,78,52,30.06,29.94,29.86,10,9,2,16,3,26,0.00,1,Rain,315
2012-10-7,53,47,41,50,46,41,100,91,72,30.20,30.11,30.04,10,8,0,6,1,,0.09,7,Fog-Rain,341
2012-10-8,51,44,37,46,42,37,100,89,62,30.32,30.25,30.20,10,8,0,9,2,,0.02,5,Fog-Rain,4
2012-10-9,62,53,44,55,48,45,100,84,59,30.23,30.16,30.08,10,10,7,9,4,,0.04,7,Rain,9
2012-10-10,71,58,44,54,48,41,100,74,41,30.12,30.00,29.89,10,9,0,10,2,17,0.00,4,Fog,271
2012-10-11,64,52,39,45,36,30,100,61,31,30.33,30.23,30.12,10,10,10,9,3,,0.00,0,,316
2012-10-12,68,52,35,48,41,36,100,77,35,30.41,30.23,30.16,10,10,7,17,3,24,0.00,0,,350
2012-10-13,62,48,33,43,37,34,100,75,39,30.54,30.44,30.31,10,10,4,10,3,22,0.00,0,,132
2012-10-14,75,58,42,57,51,43,100,71,47,30.29,30.13,29.95,10,10,10,18,6,24,0.00,1,,190
2012-10-15,73,62,50,66,60,48,100,86,65,29.95,29.80,29.68,10,9,0,15,8,23,0.06,2,Fog-Rain-Thunderstorm,207
2012-10-16,66,54,42,50,45,43,100,77,43,29.95,29.90,29.84,10,9,1,10,1,,0.00,1,,349
2012-10-17,69,53,37,52,46,37,100,83,40,30.03,29.96,29.91,10,8,2,7,1,,0.00,0,,173
2012-10-18,71,55,39,63,53,39,100,88,57,29.96,29.89,29.80,10,6,0,8,2,16,0.52,4,Fog-Rain-Thunderstorm,172
2012-10-19,75,62,48,64,58,48,100,87,47,29.78,29.71,29.63,10,7,1,13,2,20,0.01,5,Rain,270
2012-10-20,68,54,41,52,44,41,100,78,40,29.95,29.80,29.70,10,10,5,8,1,,0.00,2,,325
2012-10-21,66,50,35,48,41,36,100,77,35,30.16,30.08,29.95,10,10,7,13,1,16,0.00,0,,306
2012-10-22,71,53,35,52,43,36,100,76,38,30.24,30.17,30.12,10,9,4,6,1,,0.00,0,,225
2012-10-23,82,63,44,61,52,45,100,78,37,30.15,30.10,30.04,10,10,5,7,0,,0.00,0,,192
2012-10-24,82,66,50,61,55,50,100,79,35,30.15,30.11,30.07,10,8,1,6,1,,0.00,0,,69
2012-10-25,73,62,50,63,58,50,100,92,65,30.23,30.17,30.13,10,6,0,5,0,,0.00,,Fog,74
2012-10-26,69,63,57,63,61,57,100,91,68,30.20,30.13,30.05,10,7,1,5,1,,0.00,,,55
2012-10-27,69,63,57,61,55,48,100,78,49,30.05,29.94,29.86,10,10,5,9,3,,0.00,,,28
2012-10-28,60,56,53,55,51,46,100,78,59,29.86,29.74,29.62,10,9,4,17,9,22,0.19,,Rain,4
2012-10-29,53,50,46,52,48,43,100,96,87,29.60,29.31,28.83,10,9,4,22,13,33,1.75,,Rain,322
2012-10-30,46,44,41,43,41,39,100,94,76,29.48,29.22,28.84,10,10,7,18,9,29,0.26,,Rain,206
2012-10-31,55,47,39,43,39,36,100,76,51,29.68,29.57,29.48,10,10,10,10,2,16,0.00,,Rain,216